sensor_id;sensor_type;location;lat;lon;timestamp;P1;durP1;ratioP1;P2;durP2;ratioP2
55417;SDS011;41287;47.554;7.844;2022-10-16T00:00:18;1.80;;;1.10;;
55417;SDS011;41287;47.554;7.844;2022-10-16T00:02:43;2.65;;;1.20;;
55417;SDS011;41287;47.554;7.844;2022-10-16T00:05:09;1.98;;;1.08;;
55417;SDS011;41287;47.554;7.844;2022-10-16T00:07:34;1.33;;;0.93;;
55417;SDS011;41287;47.554;7.844;2022-10-16T00:10:03;2.05;;;1.10;;
55417;SDS011;41287;47.554;7.844;2022-10-16T00:12:29;4.40;;;0.95;;
55417;SDS011;41287;47.554;7.844;2022-10-16T00:14:54;3.42;;;1.20;;
55417;SDS011;41287;47.554;7.844;2022-10-16T00:17:20;1.80;;;1.00;;
55417;SDS011;41287;47.554;7.844;2022-10-16T00:19:45;2.83;;;1.30;;
55417;SDS011;41287;47.554;7.844;2022-10-16T00:22:11;3.50;;;0.93;;
55417;SDS011;41287;47.554;7.844;2022-10-16T00:24:36;2.00;;;1.08;;
55417;SDS011;41287;47.554;7.844;2022-10-16T00:27:01;4.13;;;1.35;;
55417;SDS011;41287;47.554;7.844;2022-10-16T00:29:27;5.63;;;1.35;;
55417;SDS011;41287;47.554;7.844;2022-10-16T00:31:54;2.03;;;1.05;;
55417;SDS011;41287;47.554;7.844;2022-10-16T00:34:19;2.70;;;1.02;;
55417;SDS011;41287;47.554;7.844;2022-10-16T00:36:46;2.55;;;1.20;;
55417;SDS011;41287;47.554;7.844;2022-10-16T00:39:11;1.40;;;0.80;;
55417;SDS011;41287;47.554;7.844;2022-10-16T00:41:37;3.38;;;1.30;;
55417;SDS011;41287;47.554;7.844;2022-10-16T00:44:03;2.53;;;1.00;;
55417;SDS011;41287;47.554;7.844;2022-10-16T00:46:49;2.10;;;1.10;;
55417;SDS011;41287;47.554;7.844;2022-10-16T00:49:16;4.63;;;1.02;;
55417;SDS011;41287;47.554;7.844;2022-10-16T00:51:45;1.50;;;0.70;;
55417;SDS011;41287;47.554;7.844;2022-10-16T00:54:16;1.98;;;0.80;;
55417;SDS011;41287;47.554;7.844;2022-10-16T00:56:45;3.15;;;1.10;;
55417;SDS011;41287;47.554;7.844;2022-10-16T00:59:23;2.63;;;1.17;;
55417;SDS011;41287;47.554;7.844;2022-10-16T01:01:53;2.67;;;1.02;;
55417;SDS011;41287;47.554;7.844;2022-10-16T01:04:19;2.05;;;0.93;;
55417;SDS011;41287;47.554;7.844;2022-10-16T01:06:48;2.55;;;1.08;;
55417;SDS011;41287;47.554;7.844;2022-10-16T01:09:27;1.77;;;0.90;;
55417;SDS011;41287;47.554;7.844;2022-10-16T01:14:45;1.70;;;0.95;;
55417;SDS011;41287;47.554;7.844;2022-10-16T01:17:41;3.22;;;1.13;;
55417;SDS011;41287;47.554;7.844;2022-10-16T01:26:01;1.98;;;0.98;;
55417;SDS011;41287;47.554;7.844;2022-10-16T01:28:58;2.08;;;1.00;;
55417;SDS011;41287;47.554;7.844;2022-10-16T01:31:32;3.38;;;1.10;;
55417;SDS011;41287;47.554;7.844;2022-10-16T01:34:14;2.87;;;1.10;;
55417;SDS011;41287;47.554;7.844;2022-10-16T01:36:56;2.05;;;1.20;;
55417;SDS011;41287;47.554;7.844;2022-10-16T01:39:30;2.72;;;1.08;;
55417;SDS011;41287;47.554;7.844;2022-10-16T01:42:00;2.60;;;1.08;;
55417;SDS011;41287;47.554;7.844;2022-10-16T01:44:31;2.50;;;0.90;;
55417;SDS011;41287;47.554;7.844;2022-10-16T01:46:58;2.40;;;1.02;;
55417;SDS011;41287;47.554;7.844;2022-10-16T01:49:25;2.10;;;1.00;;
55417;SDS011;41287;47.554;7.844;2022-10-16T01:51:55;1.33;;;0.88;;
55417;SDS011;41287;47.554;7.844;2022-10-16T01:54:23;3.63;;;1.00;;
55417;SDS011;41287;47.554;7.844;2022-10-16T01:56:52;1.90;;;1.00;;
55417;SDS011;41287;47.554;7.844;2022-10-16T01:59:20;3.08;;;1.02;;
55417;SDS011;41287;47.554;7.844;2022-10-16T02:01:49;1.77;;;0.90;;
55417;SDS011;41287;47.554;7.844;2022-10-16T02:06:52;1.83;;;0.80;;
55417;SDS011;41287;47.554;7.844;2022-10-16T02:09:18;3.80;;;1.20;;
55417;SDS011;41287;47.554;7.844;2022-10-16T02:11:44;4.18;;;0.82;;
55417;SDS011;41287;47.554;7.844;2022-10-16T02:14:10;2.28;;;0.90;;
55417;SDS011;41287;47.554;7.844;2022-10-16T02:16:40;2.45;;;1.17;;
55417;SDS011;41287;47.554;7.844;2022-10-16T02:19:07;1.85;;;0.90;;
55417;SDS011;41287;47.554;7.844;2022-10-16T02:21:43;1.70;;;0.80;;
55417;SDS011;41287;47.554;7.844;2022-10-16T02:24:22;1.70;;;0.80;;
55417;SDS011;41287;47.554;7.844;2022-10-16T02:27:00;2.03;;;0.95;;
55417;SDS011;41287;47.554;7.844;2022-10-16T02:29:49;1.80;;;0.90;;
55417;SDS011;41287;47.554;7.844;2022-10-16T02:32:24;1.42;;;0.82;;
55417;SDS011;41287;47.554;7.844;2022-10-16T02:34:55;2.50;;;0.90;;
55417;SDS011;41287;47.554;7.844;2022-10-16T02:37:22;1.55;;;0.80;;
55417;SDS011;41287;47.554;7.844;2022-10-16T02:39:47;1.75;;;0.90;;
55417;SDS011;41287;47.554;7.844;2022-10-16T02:42:13;1.95;;;0.93;;
55417;SDS011;41287;47.554;7.844;2022-10-16T02:44:42;2.33;;;0.80;;
55417;SDS011;41287;47.554;7.844;2022-10-16T02:47:07;3.30;;;1.08;;
55417;SDS011;41287;47.554;7.844;2022-10-16T02:49:33;2.20;;;0.90;;
55417;SDS011;41287;47.554;7.844;2022-10-16T02:51:58;3.67;;;1.10;;
55417;SDS011;41287;47.554;7.844;2022-10-16T02:54:23;2.35;;;0.95;;
55417;SDS011;41287;47.554;7.844;2022-10-16T02:56:49;1.20;;;0.80;;
55417;SDS011;41287;47.554;7.844;2022-10-16T02:59:14;1.83;;;0.90;;
55417;SDS011;41287;47.554;7.844;2022-10-16T03:01:40;1.90;;;0.80;;
55417;SDS011;41287;47.554;7.844;2022-10-16T03:04:05;2.25;;;0.90;;
55417;SDS011;41287;47.554;7.844;2022-10-16T03:06:31;1.42;;;0.70;;
55417;SDS011;41287;47.554;7.844;2022-10-16T03:08:56;1.90;;;1.00;;
55417;SDS011;41287;47.554;7.844;2022-10-16T03:11:22;2.25;;;0.85;;
55417;SDS011;41287;47.554;7.844;2022-10-16T03:13:47;2.47;;;0.77;;
55417;SDS011;41287;47.554;7.844;2022-10-16T03:16:14;1.83;;;0.82;;
55417;SDS011;41287;47.554;7.844;2022-10-16T03:18:39;1.20;;;0.70;;
55417;SDS011;41287;47.554;7.844;2022-10-16T03:21:05;3.75;;;1.10;;
55417;SDS011;41287;47.554;7.844;2022-10-16T03:23:30;1.75;;;0.80;;
55417;SDS011;41287;47.554;7.844;2022-10-16T03:25:55;1.35;;;0.70;;
55417;SDS011;41287;47.554;7.844;2022-10-16T03:28:21;2.05;;;0.82;;
55417;SDS011;41287;47.554;7.844;2022-10-16T03:30:46;1.27;;;0.80;;
55417;SDS011;41287;47.554;7.844;2022-10-16T03:33:12;1.88;;;0.82;;
55417;SDS011;41287;47.554;7.844;2022-10-16T03:35:37;2.53;;;0.80;;
55417;SDS011;41287;47.554;7.844;2022-10-16T03:38:03;1.50;;;0.80;;
55417;SDS011;41287;47.554;7.844;2022-10-16T03:40:28;2.28;;;0.80;;
55417;SDS011;41287;47.554;7.844;2022-10-16T03:42:53;2.13;;;0.95;;
55417;SDS011;41287;47.554;7.844;2022-10-16T03:45:22;1.98;;;0.80;;
55417;SDS011;41287;47.554;7.844;2022-10-16T03:47:48;1.25;;;0.80;;
55417;SDS011;41287;47.554;7.844;2022-10-16T03:50:14;2.05;;;0.85;;
55417;SDS011;41287;47.554;7.844;2022-10-16T03:52:39;1.00;;;0.65;;
55417;SDS011;41287;47.554;7.844;2022-10-16T03:55:05;1.67;;;0.88;;
55417;SDS011;41287;47.554;7.844;2022-10-16T03:57:30;1.15;;;0.70;;
55417;SDS011;41287;47.554;7.844;2022-10-16T03:59:56;1.73;;;0.90;;
55417;SDS011;41287;47.554;7.844;2022-10-16T04:02:23;2.25;;;0.90;;
55417;SDS011;41287;47.554;7.844;2022-10-16T04:04:49;1.38;;;0.80;;
55417;SDS011;41287;47.554;7.844;2022-10-16T04:07:14;1.70;;;0.90;;
55417;SDS011;41287;47.554;7.844;2022-10-16T04:09:41;1.38;;;0.80;;
55417;SDS011;41287;47.554;7.844;2022-10-16T04:12:07;1.88;;;0.80;;
55417;SDS011;41287;47.554;7.844;2022-10-16T04:14:32;0.90;;;0.60;;
55417;SDS011;41287;47.554;7.844;2022-10-16T04:16:57;1.08;;;0.80;;
55417;SDS011;41287;47.554;7.844;2022-10-16T04:19:23;1.38;;;0.80;;
55417;SDS011;41287;47.554;7.844;2022-10-16T04:21:48;1.05;;;0.70;;
55417;SDS011;41287;47.554;7.844;2022-10-16T04:24:14;3.00;;;1.00;;
55417;SDS011;41287;47.554;7.844;2022-10-16T04:26:39;1.92;;;0.95;;
55417;SDS011;41287;47.554;7.844;2022-10-16T04:29:04;1.35;;;0.80;;
55417;SDS011;41287;47.554;7.844;2022-10-16T04:31:31;2.20;;;0.80;;
55417;SDS011;41287;47.554;7.844;2022-10-16T04:33:56;1.30;;;0.68;;
55417;SDS011;41287;47.554;7.844;2022-10-16T04:36:21;2.63;;;0.88;;
55417;SDS011;41287;47.554;7.844;2022-10-16T04:38:47;1.58;;;0.90;;
55417;SDS011;41287;47.554;7.844;2022-10-16T04:41:12;1.95;;;0.80;;
55417;SDS011;41287;47.554;7.844;2022-10-16T04:43:38;1.52;;;1.00;;
55417;SDS011;41287;47.554;7.844;2022-10-16T04:46:03;1.08;;;0.77;;
55417;SDS011;41287;47.554;7.844;2022-10-16T04:48:29;1.80;;;1.00;;
55417;SDS011;41287;47.554;7.844;2022-10-16T04:50:55;1.05;;;0.70;;
55417;SDS011;41287;47.554;7.844;2022-10-16T04:53:21;1.10;;;0.50;;
55417;SDS011;41287;47.554;7.844;2022-10-16T04:55:52;1.38;;;0.70;;
55417;SDS011;41287;47.554;7.844;2022-10-16T04:58:18;0.93;;;0.70;;
55417;SDS011;41287;47.554;7.844;2022-10-16T05:00:44;0.82;;;0.55;;
55417;SDS011;41287;47.554;7.844;2022-10-16T05:03:11;1.40;;;0.77;;
55417;SDS011;41287;47.554;7.844;2022-10-16T05:05:36;1.90;;;0.80;;
55417;SDS011;41287;47.554;7.844;2022-10-16T05:08:02;0.98;;;0.77;;
55417;SDS011;41287;47.554;7.844;2022-10-16T05:10:28;1.45;;;0.88;;
55417;SDS011;41287;47.554;7.844;2022-10-16T05:12:53;1.13;;;0.55;;
55417;SDS011;41287;47.554;7.844;2022-10-16T05:15:19;1.63;;;0.90;;
55417;SDS011;41287;47.554;7.844;2022-10-16T05:17:44;1.45;;;0.77;;
55417;SDS011;41287;47.554;7.844;2022-10-16T05:20:10;1.77;;;0.82;;
55417;SDS011;41287;47.554;7.844;2022-10-16T05:22:37;2.25;;;0.95;;
55417;SDS011;41287;47.554;7.844;2022-10-16T05:25:03;1.10;;;0.70;;
55417;SDS011;41287;47.554;7.844;2022-10-16T05:27:29;1.80;;;0.80;;
55417;SDS011;41287;47.554;7.844;2022-10-16T05:29:54;1.15;;;0.70;;
55417;SDS011;41287;47.554;7.844;2022-10-16T05:32:19;1.10;;;0.63;;
55417;SDS011;41287;47.554;7.844;2022-10-16T05:34:45;0.73;;;0.60;;
55417;SDS011;41287;47.554;7.844;2022-10-16T05:37:11;1.00;;;0.60;;
55417;SDS011;41287;47.554;7.844;2022-10-16T05:39:37;1.52;;;0.80;;
55417;SDS011;41287;47.554;7.844;2022-10-16T05:42:03;0.70;;;0.70;;
55417;SDS011;41287;47.554;7.844;2022-10-16T05:44:29;1.08;;;0.68;;
55417;SDS011;41287;47.554;7.844;2022-10-16T05:46:55;1.00;;;0.70;;
55417;SDS011;41287;47.554;7.844;2022-10-16T05:49:22;1.10;;;0.70;;
55417;SDS011;41287;47.554;7.844;2022-10-16T05:51:48;0.98;;;0.68;;
55417;SDS011;41287;47.554;7.844;2022-10-16T05:54:13;1.00;;;0.63;;
55417;SDS011;41287;47.554;7.844;2022-10-16T05:56:39;1.85;;;0.82;;
55417;SDS011;41287;47.554;7.844;2022-10-16T05:59:04;1.55;;;0.88;;
55417;SDS011;41287;47.554;7.844;2022-10-16T06:01:30;1.58;;;1.05;;
55417;SDS011;41287;47.554;7.844;2022-10-16T06:03:56;1.25;;;0.68;;
55417;SDS011;41287;47.554;7.844;2022-10-16T06:06:23;0.88;;;0.65;;
55417;SDS011;41287;47.554;7.844;2022-10-16T06:08:51;1.83;;;0.80;;
55417;SDS011;41287;47.554;7.844;2022-10-16T06:11:21;0.65;;;0.50;;
55417;SDS011;41287;47.554;7.844;2022-10-16T06:13:49;1.48;;;0.80;;
55417;SDS011;41287;47.554;7.844;2022-10-16T06:16:15;1.73;;;0.60;;
55417;SDS011;41287;47.554;7.844;2022-10-16T06:18:41;0.90;;;0.52;;
55417;SDS011;41287;47.554;7.844;2022-10-16T06:21:07;1.00;;;0.60;;
55417;SDS011;41287;47.554;7.844;2022-10-16T06:23:34;0.70;;;0.50;;
55417;SDS011;41287;47.554;7.844;2022-10-16T06:26:04;1.05;;;0.73;;
55417;SDS011;41287;47.554;7.844;2022-10-16T06:30:59;5.03;;;0.95;;
55417;SDS011;41287;47.554;7.844;2022-10-16T06:33:25;3.67;;;0.95;;
55417;SDS011;41287;47.554;7.844;2022-10-16T06:35:51;5.20;;;0.90;;
55417;SDS011;41287;47.554;7.844;2022-10-16T06:38:16;3.28;;;0.68;;
55417;SDS011;41287;47.554;7.844;2022-10-16T06:40:41;1.58;;;0.68;;
55417;SDS011;41287;47.554;7.844;2022-10-16T06:43:06;2.25;;;0.80;;
55417;SDS011;41287;47.554;7.844;2022-10-16T06:45:32;1.23;;;0.70;;
55417;SDS011;41287;47.554;7.844;2022-10-16T06:47:57;3.95;;;1.02;;
55417;SDS011;41287;47.554;7.844;2022-10-16T06:50:22;2.80;;;0.90;;
55417;SDS011;41287;47.554;7.844;2022-10-16T06:52:48;1.40;;;0.82;;
55417;SDS011;41287;47.554;7.844;2022-10-16T06:55:14;1.88;;;0.88;;
55417;SDS011;41287;47.554;7.844;2022-10-16T06:57:40;2.92;;;0.93;;
55417;SDS011;41287;47.554;7.844;2022-10-16T07:00:05;5.03;;;1.52;;
55417;SDS011;41287;47.554;7.844;2022-10-16T07:02:31;2.05;;;0.90;;
55417;SDS011;41287;47.554;7.844;2022-10-16T07:04:56;1.00;;;0.70;;
55417;SDS011;41287;47.554;7.844;2022-10-16T07:07:22;1.38;;;0.60;;
55417;SDS011;41287;47.554;7.844;2022-10-16T07:09:49;2.15;;;0.90;;
55417;SDS011;41287;47.554;7.844;2022-10-16T07:12:18;2.05;;;1.05;;
55417;SDS011;41287;47.554;7.844;2022-10-16T07:14:43;2.47;;;1.15;;
55417;SDS011;41287;47.554;7.844;2022-10-16T07:17:09;2.17;;;1.08;;
55417;SDS011;41287;47.554;7.844;2022-10-16T07:19:34;2.28;;;1.25;;
55417;SDS011;41287;47.554;7.844;2022-10-16T07:22:00;4.13;;;1.52;;
55417;SDS011;41287;47.554;7.844;2022-10-16T07:24:25;5.85;;;2.00;;
55417;SDS011;41287;47.554;7.844;2022-10-16T07:26:51;4.13;;;1.85;;
55417;SDS011;41287;47.554;7.844;2022-10-16T07:29:20;4.63;;;1.52;;
55417;SDS011;41287;47.554;7.844;2022-10-16T07:31:46;4.65;;;1.20;;
55417;SDS011;41287;47.554;7.844;2022-10-16T07:34:13;3.13;;;1.30;;
55417;SDS011;41287;47.554;7.844;2022-10-16T07:36:39;7.22;;;1.70;;
55417;SDS011;41287;47.554;7.844;2022-10-16T07:39:05;6.97;;;1.75;;
55417;SDS011;41287;47.554;7.844;2022-10-16T07:41:31;5.40;;;1.60;;
55417;SDS011;41287;47.554;7.844;2022-10-16T07:44:01;4.00;;;1.63;;
55417;SDS011;41287;47.554;7.844;2022-10-16T07:46:27;4.47;;;1.75;;
55417;SDS011;41287;47.554;7.844;2022-10-16T07:48:53;5.07;;;1.92;;
55417;SDS011;41287;47.554;7.844;2022-10-16T07:51:21;4.35;;;2.20;;
55417;SDS011;41287;47.554;7.844;2022-10-16T07:53:48;6.40;;;2.08;;
55417;SDS011;41287;47.554;7.844;2022-10-16T07:56:14;5.70;;;2.08;;
55417;SDS011;41287;47.554;7.844;2022-10-16T07:58:40;4.35;;;1.80;;
55417;SDS011;41287;47.554;7.844;2022-10-16T08:01:06;5.95;;;1.80;;
55417;SDS011;41287;47.554;7.844;2022-10-16T08:03:34;6.85;;;1.90;;
55417;SDS011;41287;47.554;7.844;2022-10-16T08:06:00;3.85;;;1.90;;
55417;SDS011;41287;47.554;7.844;2022-10-16T08:08:26;8.90;;;2.25;;
55417;SDS011;41287;47.554;7.844;2022-10-16T08:10:52;6.25;;;2.20;;
55417;SDS011;41287;47.554;7.844;2022-10-16T08:13:20;4.50;;;2.00;;
55417;SDS011;41287;47.554;7.844;2022-10-16T08:15:45;4.57;;;1.95;;
55417;SDS011;41287;47.554;7.844;2022-10-16T08:18:12;8.32;;;2.20;;
55417;SDS011;41287;47.554;7.844;2022-10-16T08:20:39;7.10;;;2.40;;
55417;SDS011;41287;47.554;7.844;2022-10-16T08:23:05;9.68;;;2.15;;
55417;SDS011;41287;47.554;7.844;2022-10-16T08:25:33;4.68;;;1.90;;
55417;SDS011;41287;47.554;7.844;2022-10-16T08:28:00;8.20;;;2.40;;
55417;SDS011;41287;47.554;7.844;2022-10-16T08:30:25;6.68;;;1.77;;
55417;SDS011;41287;47.554;7.844;2022-10-16T08:32:51;4.88;;;1.65;;
55417;SDS011;41287;47.554;7.844;2022-10-16T08:35:17;6.78;;;1.65;;
55417;SDS011;41287;47.554;7.844;2022-10-16T08:37:42;5.47;;;1.63;;
55417;SDS011;41287;47.554;7.844;2022-10-16T08:40:19;5.68;;;2.05;;
55417;SDS011;41287;47.554;7.844;2022-10-16T08:42:59;7.05;;;1.92;;
55417;SDS011;41287;47.554;7.844;2022-10-16T08:45:49;3.17;;;1.40;;
55417;SDS011;41287;47.554;7.844;2022-10-16T08:50:56;8.38;;;2.10;;
55417;SDS011;41287;47.554;7.844;2022-10-16T08:53:29;5.72;;;1.83;;
55417;SDS011;41287;47.554;7.844;2022-10-16T08:55:58;4.18;;;1.65;;
55417;SDS011;41287;47.554;7.844;2022-10-16T08:58:27;13.45;;;2.60;;
55417;SDS011;41287;47.554;7.844;2022-10-16T09:01:04;4.72;;;1.60;;
55417;SDS011;41287;47.554;7.844;2022-10-16T09:06:50;7.03;;;1.95;;
55417;SDS011;41287;47.554;7.844;2022-10-16T09:12:07;3.63;;;1.75;;
55417;SDS011;41287;47.554;7.844;2022-10-16T09:14:57;5.75;;;1.40;;
55417;SDS011;41287;47.554;7.844;2022-10-16T09:20:19;5.93;;;1.92;;
55417;SDS011;41287;47.554;7.844;2022-10-16T09:23:22;5.78;;;1.70;;
55417;SDS011;41287;47.554;7.844;2022-10-16T09:25:51;4.05;;;1.85;;
55417;SDS011;41287;47.554;7.844;2022-10-16T09:28:19;5.95;;;1.67;;
55417;SDS011;41287;47.554;7.844;2022-10-16T09:30:45;4.97;;;1.83;;
55417;SDS011;41287;47.554;7.844;2022-10-16T09:33:12;2.95;;;1.70;;
55417;SDS011;41287;47.554;7.844;2022-10-16T09:35:39;7.55;;;2.03;;
55417;SDS011;41287;47.554;7.844;2022-10-16T09:38:06;3.17;;;1.67;;
55417;SDS011;41287;47.554;7.844;2022-10-16T09:40:34;3.70;;;1.50;;
55417;SDS011;41287;47.554;7.844;2022-10-16T09:43:19;4.75;;;1.73;;
55417;SDS011;41287;47.554;7.844;2022-10-16T09:45:55;4.60;;;1.83;;
55417;SDS011;41287;47.554;7.844;2022-10-16T09:48:44;5.70;;;1.70;;
55417;SDS011;41287;47.554;7.844;2022-10-16T09:51:20;8.65;;;2.15;;
55417;SDS011;41287;47.554;7.844;2022-10-16T09:53:53;5.93;;;1.77;;
55417;SDS011;41287;47.554;7.844;2022-10-16T09:56:28;5.55;;;1.83;;
55417;SDS011;41287;47.554;7.844;2022-10-16T09:58:55;4.20;;;2.17;;
55417;SDS011;41287;47.554;7.844;2022-10-16T10:01:24;6.32;;;2.13;;
55417;SDS011;41287;47.554;7.844;2022-10-16T10:03:55;8.68;;;1.92;;
55417;SDS011;41287;47.554;7.844;2022-10-16T10:06:29;4.85;;;1.75;;
55417;SDS011;41287;47.554;7.844;2022-10-16T10:08:57;4.88;;;1.48;;
55417;SDS011;41287;47.554;7.844;2022-10-16T10:11:44;5.40;;;1.88;;
55417;SDS011;41287;47.554;7.844;2022-10-16T10:14:17;6.38;;;2.08;;
55417;SDS011;41287;47.554;7.844;2022-10-16T10:16:51;4.47;;;1.73;;
55417;SDS011;41287;47.554;7.844;2022-10-16T10:19:26;4.32;;;1.77;;
55417;SDS011;41287;47.554;7.844;2022-10-16T10:21:52;6.10;;;1.90;;
55417;SDS011;41287;47.554;7.844;2022-10-16T10:24:18;4.53;;;1.77;;
55417;SDS011;41287;47.554;7.844;2022-10-16T10:43:06;4.60;;;2.38;;
55417;SDS011;41287;47.554;7.844;2022-10-16T10:45:42;4.03;;;1.90;;
55417;SDS011;41287;47.554;7.844;2022-10-16T10:54:17;7.63;;;2.30;;
55417;SDS011;41287;47.554;7.844;2022-10-16T11:02:27;8.07;;;1.92;;
55417;SDS011;41287;47.554;7.844;2022-10-16T11:05:47;6.07;;;1.92;;
55417;SDS011;41287;47.554;7.844;2022-10-16T11:10:48;4.50;;;1.60;;
55417;SDS011;41287;47.554;7.844;2022-10-16T11:16:00;4.82;;;1.80;;
55417;SDS011;41287;47.554;7.844;2022-10-16T11:18:52;9.95;;;2.05;;
55417;SDS011;41287;47.554;7.844;2022-10-16T11:21:29;3.92;;;1.70;;
55417;SDS011;41287;47.554;7.844;2022-10-16T11:24:23;4.15;;;1.80;;
55417;SDS011;41287;47.554;7.844;2022-10-16T11:27:03;6.10;;;1.58;;
55417;SDS011;41287;47.554;7.844;2022-10-16T11:29:32;3.90;;;1.50;;
55417;SDS011;41287;47.554;7.844;2022-10-16T11:34:47;4.38;;;1.40;;
55417;SDS011;41287;47.554;7.844;2022-10-16T11:37:17;3.85;;;1.20;;
55417;SDS011;41287;47.554;7.844;2022-10-16T11:40:45;6.25;;;1.70;;
55417;SDS011;41287;47.554;7.844;2022-10-16T11:43:15;2.58;;;1.40;;
55417;SDS011;41287;47.554;7.844;2022-10-16T11:45:46;3.97;;;1.27;;
55417;SDS011;41287;47.554;7.844;2022-10-16T11:56:32;4.07;;;1.70;;
55417;SDS011;41287;47.554;7.844;2022-10-16T11:59:16;3.72;;;1.50;;
55417;SDS011;41287;47.554;7.844;2022-10-16T12:01:46;2.90;;;1.30;;
55417;SDS011;41287;47.554;7.844;2022-10-16T12:04:39;7.93;;;1.70;;
55417;SDS011;41287;47.554;7.844;2022-10-16T12:07:18;2.30;;;1.35;;
55417;SDS011;41287;47.554;7.844;2022-10-16T12:09:48;4.55;;;1.30;;
55417;SDS011;41287;47.554;7.844;2022-10-16T12:14:59;3.92;;;1.70;;
55417;SDS011;41287;47.554;7.844;2022-10-16T12:17:36;4.15;;;1.50;;
55417;SDS011;41287;47.554;7.844;2022-10-16T12:22:41;3.88;;;1.58;;
55417;SDS011;41287;47.554;7.844;2022-10-16T12:25:26;2.75;;;1.40;;
55417;SDS011;41287;47.554;7.844;2022-10-16T12:30:30;2.88;;;1.48;;
55417;SDS011;41287;47.554;7.844;2022-10-16T12:33:02;2.67;;;1.50;;
55417;SDS011;41287;47.554;7.844;2022-10-16T12:35:32;3.78;;;1.40;;
55417;SDS011;41287;47.554;7.844;2022-10-16T12:38:14;3.33;;;1.35;;
55417;SDS011;41287;47.554;7.844;2022-10-16T12:40:41;4.88;;;1.45;;
55417;SDS011;41287;47.554;7.844;2022-10-16T12:45:46;2.63;;;1.33;;
55417;SDS011;41287;47.554;7.844;2022-10-16T12:48:19;2.63;;;1.38;;
55417;SDS011;41287;47.554;7.844;2022-10-16T12:50:46;2.60;;;1.17;;
55417;SDS011;41287;47.554;7.844;2022-10-16T12:53:19;5.35;;;1.25;;
55417;SDS011;41287;47.554;7.844;2022-10-16T12:59:15;3.22;;;1.25;;
55417;SDS011;41287;47.554;7.844;2022-10-16T13:01:41;3.50;;;1.27;;
55417;SDS011;41287;47.554;7.844;2022-10-16T13:15:06;3.00;;;1.30;;
55417;SDS011;41287;47.554;7.844;2022-10-16T13:20:34;4.10;;;1.50;;
55417;SDS011;41287;47.554;7.844;2022-10-16T13:24:02;3.90;;;1.17;;
55417;SDS011;41287;47.554;7.844;2022-10-16T13:26:16;3.42;;;1.45;;
55417;SDS011;41287;47.554;7.844;2022-10-16T13:28:51;3.03;;;1.42;;
55417;SDS011;41287;47.554;7.844;2022-10-16T13:31:18;2.95;;;1.30;;
55417;SDS011;41287;47.554;7.844;2022-10-16T13:33:50;4.47;;;1.48;;
55417;SDS011;41287;47.554;7.844;2022-10-16T13:36:24;6.32;;;1.55;;
55417;SDS011;41287;47.554;7.844;2022-10-16T13:39:06;7.18;;;1.60;;
55417;SDS011;41287;47.554;7.844;2022-10-16T13:41:39;11.40;;;1.45;;
55417;SDS011;41287;47.554;7.844;2022-10-16T13:44:05;6.57;;;1.45;;
55417;SDS011;41287;47.554;7.844;2022-10-16T13:46:38;6.80;;;2.05;;
55417;SDS011;41287;47.554;7.844;2022-10-16T13:49:04;7.13;;;2.00;;
55417;SDS011;41287;47.554;7.844;2022-10-16T13:51:36;6.70;;;1.52;;
55417;SDS011;41287;47.554;7.844;2022-10-16T13:54:02;4.70;;;0.95;;
55417;SDS011;41287;47.554;7.844;2022-10-16T13:56:30;4.70;;;1.60;;
55417;SDS011;41287;47.554;7.844;2022-10-16T13:58:58;4.75;;;1.20;;
55417;SDS011;41287;47.554;7.844;2022-10-16T14:01:35;5.10;;;1.70;;
55417;SDS011;41287;47.554;7.844;2022-10-16T14:04:10;4.78;;;1.67;;
55417;SDS011;41287;47.554;7.844;2022-10-16T14:06:40;6.82;;;1.60;;
55417;SDS011;41287;47.554;7.844;2022-10-16T14:11:45;5.03;;;1.40;;
55417;SDS011;41287;47.554;7.844;2022-10-16T14:14:14;9.35;;;1.77;;
55417;SDS011;41287;47.554;7.844;2022-10-16T14:16:41;4.43;;;1.45;;
55417;SDS011;41287;47.554;7.844;2022-10-16T14:21:50;5.65;;;1.35;;
55417;SDS011;41287;47.554;7.844;2022-10-16T14:24:32;4.70;;;1.45;;
55417;SDS011;41287;47.554;7.844;2022-10-16T14:27:00;4.00;;;1.40;;
55417;SDS011;41287;47.554;7.844;2022-10-16T14:29:27;3.50;;;1.30;;
55417;SDS011;41287;47.554;7.844;2022-10-16T14:32:00;6.72;;;1.52;;
55417;SDS011;41287;47.554;7.844;2022-10-16T14:34:34;9.02;;;1.63;;
55417;SDS011;41287;47.554;7.844;2022-10-16T14:37:10;5.38;;;1.70;;
55417;SDS011;41287;47.554;7.844;2022-10-16T14:39:48;3.75;;;1.30;;
55417;SDS011;41287;47.554;7.844;2022-10-16T14:42:15;3.67;;;1.33;;
55417;SDS011;41287;47.554;7.844;2022-10-16T14:44:44;5.50;;;1.25;;
55417;SDS011;41287;47.554;7.844;2022-10-16T14:47:13;4.13;;;1.30;;
55417;SDS011;41287;47.554;7.844;2022-10-16T14:49:41;3.92;;;1.63;;
55417;SDS011;41287;47.554;7.844;2022-10-16T14:52:10;3.38;;;1.15;;
55417;SDS011;41287;47.554;7.844;2022-10-16T14:54:37;3.00;;;1.27;;
55417;SDS011;41287;47.554;7.844;2022-10-16T14:57:03;2.33;;;1.40;;
55417;SDS011;41287;47.554;7.844;2022-10-16T14:59:40;1.75;;;1.20;;
55417;SDS011;41287;47.554;7.844;2022-10-16T15:04:50;4.35;;;1.45;;
55417;SDS011;41287;47.554;7.844;2022-10-16T15:07:16;4.30;;;1.38;;
55417;SDS011;41287;47.554;7.844;2022-10-16T15:09:41;5.63;;;1.50;;
55417;SDS011;41287;47.554;7.844;2022-10-16T15:12:06;4.90;;;1.30;;
55417;SDS011;41287;47.554;7.844;2022-10-16T15:14:32;2.40;;;1.50;;
55417;SDS011;41287;47.554;7.844;2022-10-16T15:16:57;3.20;;;1.52;;
55417;SDS011;41287;47.554;7.844;2022-10-16T15:19:23;3.55;;;1.50;;
55417;SDS011;41287;47.554;7.844;2022-10-16T15:21:48;5.85;;;1.52;;
55417;SDS011;41287;47.554;7.844;2022-10-16T15:24:14;5.13;;;1.33;;
55417;SDS011;41287;47.554;7.844;2022-10-16T15:26:40;4.80;;;1.30;;
55417;SDS011;41287;47.554;7.844;2022-10-16T15:29:06;6.43;;;1.55;;
55417;SDS011;41287;47.554;7.844;2022-10-16T15:31:32;4.15;;;1.40;;
55417;SDS011;41287;47.554;7.844;2022-10-16T15:33:57;4.22;;;1.30;;
55417;SDS011;41287;47.554;7.844;2022-10-16T15:36:29;5.78;;;1.85;;
55417;SDS011;41287;47.554;7.844;2022-10-16T15:38:59;3.65;;;1.40;;
55417;SDS011;41287;47.554;7.844;2022-10-16T15:41:25;6.00;;;1.83;;
55417;SDS011;41287;47.554;7.844;2022-10-16T15:43:50;5.72;;;1.75;;
55417;SDS011;41287;47.554;7.844;2022-10-16T15:46:17;6.03;;;2.05;;
55417;SDS011;41287;47.554;7.844;2022-10-16T15:48:44;6.57;;;1.58;;
55417;SDS011;41287;47.554;7.844;2022-10-16T15:51:10;5.05;;;1.38;;
55417;SDS011;41287;47.554;7.844;2022-10-16T15:53:35;4.47;;;1.50;;
55417;SDS011;41287;47.554;7.844;2022-10-16T15:56:02;4.80;;;1.60;;
55417;SDS011;41287;47.554;7.844;2022-10-16T15:58:30;4.80;;;1.80;;
55417;SDS011;41287;47.554;7.844;2022-10-16T16:00:56;5.78;;;1.92;;
55417;SDS011;41287;47.554;7.844;2022-10-16T16:03:23;5.00;;;1.50;;
55417;SDS011;41287;47.554;7.844;2022-10-16T16:05:48;3.97;;;1.42;;
55417;SDS011;41287;47.554;7.844;2022-10-16T16:08:14;5.32;;;1.65;;
55417;SDS011;41287;47.554;7.844;2022-10-16T16:10:39;5.57;;;1.50;;
55417;SDS011;41287;47.554;7.844;2022-10-16T16:13:05;5.35;;;1.60;;
55417;SDS011;41287;47.554;7.844;2022-10-16T16:15:31;6.38;;;1.75;;
55417;SDS011;41287;47.554;7.844;2022-10-16T16:17:56;3.75;;;1.60;;
55417;SDS011;41287;47.554;7.844;2022-10-16T16:20:21;4.65;;;1.60;;
55417;SDS011;41287;47.554;7.844;2022-10-16T16:22:49;4.13;;;1.67;;
55417;SDS011;41287;47.554;7.844;2022-10-16T16:25:14;4.15;;;1.38;;
55417;SDS011;41287;47.554;7.844;2022-10-16T16:27:40;5.88;;;1.70;;
55417;SDS011;41287;47.554;7.844;2022-10-16T16:30:10;5.93;;;1.50;;
55417;SDS011;41287;47.554;7.844;2022-10-16T16:32:36;5.05;;;1.80;;
55417;SDS011;41287;47.554;7.844;2022-10-16T16:35:02;3.58;;;1.25;;
55417;SDS011;41287;47.554;7.844;2022-10-16T16:37:29;4.90;;;1.80;;
55417;SDS011;41287;47.554;7.844;2022-10-16T16:39:55;4.05;;;1.58;;
55417;SDS011;41287;47.554;7.844;2022-10-16T16:42:23;4.97;;;1.55;;
55417;SDS011;41287;47.554;7.844;2022-10-16T16:44:49;5.57;;;1.50;;